sensor_id;sensor_type;location;lat;lon;timestamp;P1;durP1;ratioP1;P2;durP2;ratioP2
78322;SDS011;67583;50.616;-3.404;2023-11-19T00:00:09;33.45;;;6.50;;
78322;SDS011;67583;50.616;-3.404;2023-11-19T00:02:38;23.83;;;4.78;;
78322;SDS011;67583;50.616;-3.404;2023-11-19T00:05:04;33.25;;;5.53;;
78322;SDS011;67583;50.616;-3.404;2023-11-19T00:07:33;36.50;;;6.03;;
78322;SDS011;67583;50.616;-3.404;2023-11-19T00:10:06;28.42;;;6.88;;
78322;SDS011;67583;50.616;-3.404;2023-11-19T00:12:44;35.00;;;6.80;;
78322;SDS011;67583;50.616;-3.404;2023-11-19T00:15:11;44.88;;;6.13;;
78322;SDS011;67583;50.616;-3.404;2023-11-19T00:17:40;20.92;;;5.25;;
78322;SDS011;67583;50.616;-3.404;2023-11-19T00:20:09;29.13;;;5.97;;
78322;SDS011;67583;50.616;-3.404;2023-11-19T00:22:41;32.55;;;6.47;;
78322;SDS011;67583;50.616;-3.404;2023-11-19T00:25:08;30.90;;;5.40;;
78322;SDS011;67583;50.616;-3.404;2023-11-19T00:27:34;26.13;;;4.63;;
78322;SDS011;67583;50.616;-3.404;2023-11-19T00:29:59;31.15;;;5.93;;
78322;SDS011;67583;50.616;-3.404;2023-11-19T00:32:24;24.30;;;4.47;;
78322;SDS011;67583;50.616;-3.404;2023-11-19T00:34:50;29.67;;;5.78;;
78322;SDS011;67583;50.616;-3.404;2023-11-19T00:37:16;25.90;;;5.03;;
78322;SDS011;67583;50.616;-3.404;2023-11-19T00:39:42;39.92;;;7.68;;
78322;SDS011;67583;50.616;-3.404;2023-11-19T00:42:08;30.08;;;5.20;;
78322;SDS011;67583;50.616;-3.404;2023-11-19T00:44:35;24.10;;;5.70;;
78322;SDS011;67583;50.616;-3.404;2023-11-19T00:47:00;29.48;;;4.70;;
78322;SDS011;67583;50.616;-3.404;2023-11-19T00:49:26;23.30;;;4.38;;
78322;SDS011;67583;50.616;-3.404;2023-11-19T00:51:51;28.10;;;4.85;;
78322;SDS011;67583;50.616;-3.404;2023-11-19T00:54:17;26.92;;;5.22;;
78322;SDS011;67583;50.616;-3.404;2023-11-19T00:56:42;27.23;;;5.50;;
78322;SDS011;67583;50.616;-3.404;2023-11-19T00:59:07;30.60;;;5.45;;
78322;SDS011;67583;50.616;-3.404;2023-11-19T01:01:33;31.83;;;5.50;;
78322;SDS011;67583;50.616;-3.404;2023-11-19T01:03:58;25.55;;;4.28;;
78322;SDS011;67583;50.616;-3.404;2023-11-19T01:06:30;25.52;;;5.72;;
78322;SDS011;67583;50.616;-3.404;2023-11-19T01:08:56;22.23;;;4.43;;
78322;SDS011;67583;50.616;-3.404;2023-11-19T01:11:22;22.00;;;5.18;;
78322;SDS011;67583;50.616;-3.404;2023-11-19T01:13:47;24.77;;;4.85;;
78322;SDS011;67583;50.616;-3.404;2023-11-19T01:16:13;28.98;;;4.75;;
78322;SDS011;67583;50.616;-3.404;2023-11-19T01:18:38;34.90;;;5.57;;
78322;SDS011;67583;50.616;-3.404;2023-11-19T01:21:04;25.38;;;6.00;;
78322;SDS011;67583;50.616;-3.404;2023-11-19T01:23:30;29.30;;;5.63;;
78322;SDS011;67583;50.616;-3.404;2023-11-19T01:25:55;30.25;;;5.57;;
78322;SDS011;67583;50.616;-3.404;2023-11-19T01:28:21;31.92;;;5.25;;
78322;SDS011;67583;50.616;-3.404;2023-11-19T01:30:46;23.48;;;5.38;;
78322;SDS011;67583;50.616;-3.404;2023-11-19T01:33:11;24.30;;;5.30;;
78322;SDS011;67583;50.616;-3.404;2023-11-19T01:35:37;30.02;;;5.00;;
78322;SDS011;67583;50.616;-3.404;2023-11-19T01:38:02;24.60;;;5.32;;
78322;SDS011;67583;50.616;-3.404;2023-11-19T01:40:27;22.08;;;5.97;;
78322;SDS011;67583;50.616;-3.404;2023-11-19T01:42:53;29.95;;;6.30;;
78322;SDS011;67583;50.616;-3.404;2023-11-19T01:45:30;30.10;;;4.57;;
78322;SDS011;67583;50.616;-3.404;2023-11-19T01:47:56;25.73;;;5.28;;
78322;SDS011;67583;50.616;-3.404;2023-11-19T01:50:22;26.88;;;5.10;;
78322;SDS011;67583;50.616;-3.404;2023-11-19T01:52:50;30.48;;;4.97;;
78322;SDS011;67583;50.616;-3.404;2023-11-19T01:55:17;25.95;;;5.45;;
78322;SDS011;67583;50.616;-3.404;2023-11-19T01:57:43;28.20;;;5.18;;
78322;SDS011;67583;50.616;-3.404;2023-11-19T02:00:08;25.45;;;5.55;;
78322;SDS011;67583;50.616;-3.404;2023-11-19T02:02:37;24.08;;;6.38;;
78322;SDS011;67583;50.616;-3.404;2023-11-19T02:05:04;17.65;;;4.07;;
78322;SDS011;67583;50.616;-3.404;2023-11-19T02:07:30;29.02;;;4.57;;
78322;SDS011;67583;50.616;-3.404;2023-11-19T02:09:56;30.58;;;5.53;;
78322;SDS011;67583;50.616;-3.404;2023-11-19T02:12:24;31.38;;;7.05;;
78322;SDS011;67583;50.616;-3.404;2023-11-19T02:14:49;31.33;;;4.63;;
78322;SDS011;67583;50.616;-3.404;2023-11-19T02:17:27;30.08;;;6.40;;
78322;SDS011;67583;50.616;-3.404;2023-11-19T02:19:53;23.13;;;5.40;;
78322;SDS011;67583;50.616;-3.404;2023-11-19T02:22:19;27.00;;;4.95;;
78322;SDS011;67583;50.616;-3.404;2023-11-19T02:24:45;26.05;;;6.72;;
78322;SDS011;67583;50.616;-3.404;2023-11-19T02:27:16;24.30;;;5.15;;
78322;SDS011;67583;50.616;-3.404;2023-11-19T02:30:04;28.63;;;5.45;;
78322;SDS011;67583;50.616;-3.404;2023-11-19T02:32:33;35.70;;;6.30;;
78322;SDS011;67583;50.616;-3.404;2023-11-19T02:34:59;40.33;;;7.35;;
78322;SDS011;67583;50.616;-3.404;2023-11-19T02:37:24;30.92;;;6.85;;
78322;SDS011;67583;50.616;-3.404;2023-11-19T02:39:50;28.35;;;4.93;;
78322;SDS011;67583;50.616;-3.404;2023-11-19T02:42:16;29.20;;;5.75;;
78322;SDS011;67583;50.616;-3.404;2023-11-19T02:44:44;32.42;;;7.00;;
78322;SDS011;67583;50.616;-3.404;2023-11-19T02:47:11;32.38;;;5.07;;
78322;SDS011;67583;50.616;-3.404;2023-11-19T02:49:36;32.63;;;6.85;;
78322;SDS011;67583;50.616;-3.404;2023-11-19T02:52:02;27.25;;;4.68;;
78322;SDS011;67583;50.616;-3.404;2023-11-19T02:54:30;33.22;;;4.82;;
78322;SDS011;67583;50.616;-3.404;2023-11-19T02:56:59;29.52;;;5.75;;
78322;SDS011;67583;50.616;-3.404;2023-11-19T02:59:26;29.60;;;4.70;;
78322;SDS011;67583;50.616;-3.404;2023-11-19T03:01:53;30.15;;;5.60;;
78322;SDS011;67583;50.616;-3.404;2023-11-19T03:04:19;22.75;;;4.72;;
78322;SDS011;67583;50.616;-3.404;2023-11-19T03:06:45;27.15;;;4.78;;
78322;SDS011;67583;50.616;-3.404;2023-11-19T03:09:11;25.30;;;4.57;;
78322;SDS011;67583;50.616;-3.404;2023-11-19T03:11:36;28.85;;;4.85;;
78322;SDS011;67583;50.616;-3.404;2023-11-19T03:14:02;32.30;;;5.47;;
78322;SDS011;67583;50.616;-3.404;2023-11-19T03:16:30;22.63;;;5.18;;
78322;SDS011;67583;50.616;-3.404;2023-11-19T03:18:56;25.35;;;5.45;;
78322;SDS011;67583;50.616;-3.404;2023-11-19T03:21:28;29.17;;;5.60;;
78322;SDS011;67583;50.616;-3.404;2023-11-19T03:23:54;32.05;;;4.80;;
78322;SDS011;67583;50.616;-3.404;2023-11-19T03:26:19;25.25;;;5.07;;
78322;SDS011;67583;50.616;-3.404;2023-11-19T03:28:44;32.08;;;4.35;;
78322;SDS011;67583;50.616;-3.404;2023-11-19T03:31:10;27.63;;;4.82;;
78322;SDS011;67583;50.616;-3.404;2023-11-19T03:33:35;30.52;;;6.32;;
78322;SDS011;67583;50.616;-3.404;2023-11-19T03:36:02;25.42;;;4.85;;
78322;SDS011;67583;50.616;-3.404;2023-11-19T03:38:28;19.70;;;4.60;;
78322;SDS011;67583;50.616;-3.404;2023-11-19T03:40:53;27.73;;;4.32;;
78322;SDS011;67583;50.616;-3.404;2023-11-19T03:43:18;23.23;;;4.35;;
78322;SDS011;67583;50.616;-3.404;2023-11-19T03:45:44;24.30;;;4.07;;
78322;SDS011;67583;50.616;-3.404;2023-11-19T03:48:09;23.33;;;5.18;;
78322;SDS011;67583;50.616;-3.404;2023-11-19T03:50:35;22.65;;;4.85;;
78322;SDS011;67583;50.616;-3.404;2023-11-19T03:53:00;25.73;;;5.25;;
78322;SDS011;67583;50.616;-3.404;2023-11-19T03:55:25;21.95;;;4.38;;
78322;SDS011;67583;50.616;-3.404;2023-11-19T03:57:51;24.65;;;5.68;;
78322;SDS011;67583;50.616;-3.404;2023-11-19T04:00:16;19.42;;;4.07;;
78322;SDS011;67583;50.616;-3.404;2023-11-19T04:02:42;19.95;;;3.90;;
78322;SDS011;67583;50.616;-3.404;2023-11-19T04:05:07;29.25;;;5.03;;
78322;SDS011;67583;50.616;-3.404;2023-11-19T04:07:33;18.92;;;3.67;;
78322;SDS011;67583;50.616;-3.404;2023-11-19T04:09:59;22.45;;;5.28;;
78322;SDS011;67583;50.616;-3.404;2023-11-19T04:12:25;18.58;;;3.58;;
78322;SDS011;67583;50.616;-3.404;2023-11-19T04:14:50;20.25;;;4.30;;
78322;SDS011;67583;50.616;-3.404;2023-11-19T04:17:15;16.20;;;4.00;;
78322;SDS011;67583;50.616;-3.404;2023-11-19T04:19:41;23.05;;;5.80;;
78322;SDS011;67583;50.616;-3.404;2023-11-19T04:22:07;22.08;;;4.18;;
78322;SDS011;67583;50.616;-3.404;2023-11-19T04:24:33;28.75;;;4.28;;
78322;SDS011;67583;50.616;-3.404;2023-11-19T04:26:59;24.30;;;3.95;;
78322;SDS011;67583;50.616;-3.404;2023-11-19T04:29:24;21.48;;;3.83;;
78322;SDS011;67583;50.616;-3.404;2023-11-19T04:31:50;19.02;;;5.03;;
78322;SDS011;67583;50.616;-3.404;2023-11-19T04:34:17;20.00;;;5.55;;
78322;SDS011;67583;50.616;-3.404;2023-11-19T04:36:42;23.00;;;5.18;;
78322;SDS011;67583;50.616;-3.404;2023-11-19T04:39:08;21.88;;;4.57;;
78322;SDS011;67583;50.616;-3.404;2023-11-19T04:44:17;22.75;;;4.00;;
78322;SDS011;67583;50.616;-3.404;2023-11-19T04:46:42;20.85;;;4.47;;
78322;SDS011;67583;50.616;-3.404;2023-11-19T04:49:09;22.50;;;5.55;;
78322;SDS011;67583;50.616;-3.404;2023-11-19T04:51:39;23.35;;;4.85;;
78322;SDS011;67583;50.616;-3.404;2023-11-19T04:54:08;25.08;;;4.75;;
78322;SDS011;67583;50.616;-3.404;2023-11-19T04:56:34;31.08;;;6.43;;
78322;SDS011;67583;50.616;-3.404;2023-11-19T04:59:02;38.22;;;4.63;;
78322;SDS011;67583;50.616;-3.404;2023-11-19T05:01:27;23.70;;;3.90;;
78322;SDS011;67583;50.616;-3.404;2023-11-19T05:03:53;32.53;;;5.18;;
78322;SDS011;67583;50.616;-3.404;2023-11-19T05:06:18;23.48;;;5.55;;
78322;SDS011;67583;50.616;-3.404;2023-11-19T05:08:44;28.60;;;6.57;;
78322;SDS011;67583;50.616;-3.404;2023-11-19T05:11:09;25.40;;;5.10;;
78322;SDS011;67583;50.616;-3.404;2023-11-19T05:13:37;23.35;;;5.40;;
78322;SDS011;67583;50.616;-3.404;2023-11-19T05:16:03;24.73;;;5.03;;
78322;SDS011;67583;50.616;-3.404;2023-11-19T05:18:29;31.55;;;4.82;;
78322;SDS011;67583;50.616;-3.404;2023-11-19T05:20:55;29.73;;;6.35;;
78322;SDS011;67583;50.616;-3.404;2023-11-19T05:23:20;25.92;;;4.50;;
78322;SDS011;67583;50.616;-3.404;2023-11-19T05:25:46;23.50;;;4.25;;
78322;SDS011;67583;50.616;-3.404;2023-11-19T05:28:12;20.48;;;6.50;;
78322;SDS011;67583;50.616;-3.404;2023-11-19T05:30:39;24.20;;;3.83;;
78322;SDS011;67583;50.616;-3.404;2023-11-19T05:33:04;19.92;;;5.10;;
78322;SDS011;67583;50.616;-3.404;2023-11-19T05:35:30;23.92;;;5.00;;
78322;SDS011;67583;50.616;-3.404;2023-11-19T05:37:55;25.88;;;5.07;;
78322;SDS011;67583;50.616;-3.404;2023-11-19T05:40:21;18.30;;;4.30;;
78322;SDS011;67583;50.616;-3.404;2023-11-19T05:42:46;25.60;;;5.25;;
78322;SDS011;67583;50.616;-3.404;2023-11-19T05:45:12;22.08;;;4.30;;
78322;SDS011;67583;50.616;-3.404;2023-11-19T05:47:37;18.88;;;4.28;;
78322;SDS011;67583;50.616;-3.404;2023-11-19T05:50:03;23.10;;;4.55;;
78322;SDS011;67583;50.616;-3.404;2023-11-19T05:52:30;31.33;;;5.10;;
78322;SDS011;67583;50.616;-3.404;2023-11-19T05:54:59;28.95;;;4.07;;
78322;SDS011;67583;50.616;-3.404;2023-11-19T05:57:27;23.42;;;3.95;;
78322;SDS011;67583;50.616;-3.404;2023-11-19T05:59:54;24.60;;;5.70;;
78322;SDS011;67583;50.616;-3.404;2023-11-19T06:02:19;26.30;;;5.43;;
78322;SDS011;67583;50.616;-3.404;2023-11-19T06:04:45;23.60;;;5.30;;
78322;SDS011;67583;50.616;-3.404;2023-11-19T06:07:12;19.40;;;4.10;;
78322;SDS011;67583;50.616;-3.404;2023-11-19T06:09:40;21.45;;;4.53;;
78322;SDS011;67583;50.616;-3.404;2023-11-19T06:12:05;23.42;;;4.88;;
78322;SDS011;67583;50.616;-3.404;2023-11-19T06:14:32;28.30;;;5.05;;
78322;SDS011;67583;50.616;-3.404;2023-11-19T06:16:57;27.75;;;4.57;;
78322;SDS011;67583;50.616;-3.404;2023-11-19T06:19:23;25.35;;;4.22;;
78322;SDS011;67583;50.616;-3.404;2023-11-19T06:21:50;17.27;;;4.15;;
78322;SDS011;67583;50.616;-3.404;2023-11-19T06:24:15;23.65;;;6.65;;
78322;SDS011;67583;50.616;-3.404;2023-11-19T06:26:40;15.18;;;3.95;;
78322;SDS011;67583;50.616;-3.404;2023-11-19T06:29:06;24.13;;;4.18;;
78322;SDS011;67583;50.616;-3.404;2023-11-19T06:31:31;24.60;;;4.88;;
78322;SDS011;67583;50.616;-3.404;2023-11-19T06:33:56;24.83;;;5.30;;
78322;SDS011;67583;50.616;-3.404;2023-11-19T06:36:22;29.67;;;5.40;;
78322;SDS011;67583;50.616;-3.404;2023-11-19T06:38:47;25.45;;;5.43;;
78322;SDS011;67583;50.616;-3.404;2023-11-19T06:41:13;22.85;;;5.88;;
78322;SDS011;67583;50.616;-3.404;2023-11-19T06:43:38;33.30;;;5.63;;
78322;SDS011;67583;50.616;-3.404;2023-11-19T06:46:04;27.45;;;6.00;;
78322;SDS011;67583;50.616;-3.404;2023-11-19T06:48:34;26.13;;;5.28;;
78322;SDS011;67583;50.616;-3.404;2023-11-19T06:50:59;21.00;;;4.80;;
78322;SDS011;67583;50.616;-3.404;2023-11-19T06:53:25;17.35;;;4.82;;
78322;SDS011;67583;50.616;-3.404;2023-11-19T06:55:52;24.60;;;4.57;;
78322;SDS011;67583;50.616;-3.404;2023-11-19T06:58:18;23.92;;;3.50;;
78322;SDS011;67583;50.616;-3.404;2023-11-19T07:00:43;18.48;;;3.53;;
78322;SDS011;67583;50.616;-3.404;2023-11-19T07:03:10;23.55;;;4.22;;
78322;SDS011;67583;50.616;-3.404;2023-11-19T07:05:36;22.77;;;4.05;;
78322;SDS011;67583;50.616;-3.404;2023-11-19T07:08:05;23.63;;;4.60;;
78322;SDS011;67583;50.616;-3.404;2023-11-19T07:10:32;25.30;;;4.50;;
78322;SDS011;67583;50.616;-3.404;2023-11-19T07:12:58;30.60;;;4.50;;
78322;SDS011;67583;50.616;-3.404;2023-11-19T07:15:24;16.35;;;3.75;;
78322;SDS011;67583;50.616;-3.404;2023-11-19T07:17:49;21.10;;;3.92;;
78322;SDS011;67583;50.616;-3.404;2023-11-19T07:20:15;26.70;;;5.60;;
78322;SDS011;67583;50.616;-3.404;2023-11-19T07:22:44;22.23;;;4.10;;
78322;SDS011;67583;50.616;-3.404;2023-11-19T07:25:15;19.75;;;4.38;;
78322;SDS011;67583;50.616;-3.404;2023-11-19T07:27:40;23.17;;;3.88;;
78322;SDS011;67583;50.616;-3.404;2023-11-19T07:30:06;25.25;;;4.80;;
78322;SDS011;67583;50.616;-3.404;2023-11-19T07:32:34;22.80;;;5.78;;
78322;SDS011;67583;50.616;-3.404;2023-11-19T07:35:00;31.73;;;5.15;;
78322;SDS011;67583;50.616;-3.404;2023-11-19T07:37:25;30.55;;;5.82;;
78322;SDS011;67583;50.616;-3.404;2023-11-19T07:39:51;22.02;;;6.15;;
78322;SDS011;67583;50.616;-3.404;2023-11-19T07:42:16;17.45;;;5.20;;
78322;SDS011;67583;50.616;-3.404;2023-11-19T07:44:43;28.00;;;4.43;;
78322;SDS011;67583;50.616;-3.404;2023-11-19T07:47:08;31.10;;;6.47;;
78322;SDS011;67583;50.616;-3.404;2023-11-19T07:49:34;19.02;;;3.55;;
78322;SDS011;67583;50.616;-3.404;2023-11-19T07:51:59;26.92;;;5.32;;
78322;SDS011;67583;50.616;-3.404;2023-11-19T07:54:24;21.83;;;4.15;;
78322;SDS011;67583;50.616;-3.404;2023-11-19T07:56:50;19.17;;;4.38;;
78322;SDS011;67583;50.616;-3.404;2023-11-19T07:59:16;27.45;;;4.55;;
78322;SDS011;67583;50.616;-3.404;2023-11-19T08:01:41;18.65;;;3.92;;
78322;SDS011;67583;50.616;-3.404;2023-11-19T08:04:06;21.50;;;3.78;;
78322;SDS011;67583;50.616;-3.404;2023-11-19T08:06:32;28.48;;;4.90;;
78322;SDS011;67583;50.616;-3.404;2023-11-19T08:08:57;26.45;;;5.65;;
78322;SDS011;67583;50.616;-3.404;2023-11-19T08:11:23;19.55;;;5.50;;
78322;SDS011;67583;50.616;-3.404;2023-11-19T08:13:49;21.50;;;4.05;;
78322;SDS011;67583;50.616;-3.404;2023-11-19T08:16:14;19.33;;;4.60;;
78322;SDS011;67583;50.616;-3.404;2023-11-19T08:18:41;19.30;;;3.45;;
78322;SDS011;67583;50.616;-3.404;2023-11-19T08:21:08;15.90;;;3.70;;
78322;SDS011;67583;50.616;-3.404;2023-11-19T08:23:33;17.30;;;4.13;;
78322;SDS011;67583;50.616;-3.404;2023-11-19T08:25:59;39.92;;;4.75;;
78322;SDS011;67583;50.616;-3.404;2023-11-19T08:28:24;20.10;;;4.95;;
78322;SDS011;67583;50.616;-3.404;2023-11-19T08:30:50;20.42;;;4.13;;
78322;SDS011;67583;50.616;-3.404;2023-11-19T08:33:15;29.90;;;5.18;;
78322;SDS011;67583;50.616;-3.404;2023-11-19T08:35:41;24.77;;;5.75;;
78322;SDS011;67583;50.616;-3.404;2023-11-19T08:38:07;28.33;;;4.13;;
78322;SDS011;67583;50.616;-3.404;2023-11-19T08:40:32;18.95;;;3.70;;
78322;SDS011;67583;50.616;-3.404;2023-11-19T08:42:57;20.05;;;3.85;;
78322;SDS011;67583;50.616;-3.404;2023-11-19T08:45:23;17.95;;;3.58;;
78322;SDS011;67583;50.616;-3.404;2023-11-19T08:47:48;18.38;;;4.53;;
78322;SDS011;67583;50.616;-3.404;2023-11-19T08:50:14;18.85;;;4.53;;
78322;SDS011;67583;50.616;-3.404;2023-11-19T08:52:39;21.08;;;4.40;;
78322;SDS011;67583;50.616;-3.404;2023-11-19T08:55:04;16.38;;;4.45;;
78322;SDS011;67583;50.616;-3.404;2023-11-19T08:57:30;13.98;;;3.90;;
78322;SDS011;67583;50.616;-3.404;2023-11-19T08:59:56;16.23;;;4.57;;
78322;SDS011;67583;50.616;-3.404;2023-11-19T09:02:21;16.27;;;5.22;;
78322;SDS011;67583;50.616;-3.404;2023-11-19T09:04:47;21.38;;;4.10;;
78322;SDS011;67583;50.616;-3.404;2023-11-19T09:07:12;17.70;;;4.32;;
78322;SDS011;67583;50.616;-3.404;2023-11-19T09:09:38;16.20;;;3.30;;
78322;SDS011;67583;50.616;-3.404;2023-11-19T09:12:03;19.38;;;3.70;;
78322;SDS011;67583;50.616;-3.404;2023-11-19T09:14:29;21.65;;;4.35;;
78322;SDS011;67583;50.616;-3.404;2023-11-19T09:16:55;15.50;;;3.55;;
78322;SDS011;67583;50.616;-3.404;2023-11-19T09:19:21;18.52;;;5.28;;
78322;SDS011;67583;50.616;-3.404;2023-11-19T09:21:46;20.13;;;5.05;;
78322;SDS011;67583;50.616;-3.404;2023-11-19T09:24:14;17.25;;;3.95;;
78322;SDS011;67583;50.616;-3.404;2023-11-19T09:26:40;27.60;;;5.45;;
78322;SDS011;67583;50.616;-3.404;2023-11-19T09:29:06;24.15;;;3.85;;
78322;SDS011;67583;50.616;-3.404;2023-11-19T09:31:32;27.50;;;4.25;;
78322;SDS011;67583;50.616;-3.404;2023-11-19T09:33:58;24.88;;;3.92;;
78322;SDS011;67583;50.616;-3.404;2023-11-19T09:36:23;20.73;;;3.40;;
78322;SDS011;67583;50.616;-3.404;2023-11-19T09:38:49;16.08;;;3.38;;
78322;SDS011;67583;50.616;-3.404;2023-11-19T09:41:14;19.00;;;3.88;;
78322;SDS011;67583;50.616;-3.404;2023-11-19T09:43:40;20.02;;;4.28;;
78322;SDS011;67583;50.616;-3.404;2023-11-19T09:46:07;30.55;;;5.43;;
78322;SDS011;67583;50.616;-3.404;2023-11-19T09:48:37;13.63;;;3.67;;
78322;SDS011;67583;50.616;-3.404;2023-11-19T09:51:03;15.73;;;3.15;;
78322;SDS011;67583;50.616;-3.404;2023-11-19T09:53:29;14.48;;;3.30;;
78322;SDS011;67583;50.616;-3.404;2023-11-19T09:55:55;14.77;;;2.35;;
78322;SDS011;67583;50.616;-3.404;2023-11-19T09:58:21;14.55;;;4.50;;
78322;SDS011;67583;50.616;-3.404;2023-11-19T10:00:47;15.50;;;3.33;;
78322;SDS011;67583;50.616;-3.404;2023-11-19T10:03:13;14.30;;;3.22;;
78322;SDS011;67583;50.616;-3.404;2023-11-19T10:05:38;18.25;;;3.50;;
78322;SDS011;67583;50.616;-3.404;2023-11-19T10:08:05;14.38;;;3.08;;
78322;SDS011;67583;50.616;-3.404;2023-11-19T10:10:31;14.43;;;3.67;;
78322;SDS011;67583;50.616;-3.404;2023-11-19T10:12:56;11.48;;;3.15;;
78322;SDS011;67583;50.616;-3.404;2023-11-19T10:15:23;15.93;;;3.83;;
78322;SDS011;67583;50.616;-3.404;2023-11-19T10:17:56;15.35;;;3.70;;
78322;SDS011;67583;50.616;-3.404;2023-11-19T10:22:47;15.35;;;2.13;;
78322;SDS011;67583;50.616;-3.404;2023-11-19T10:25:25;12.38;;;2.83;;
78322;SDS011;67583;50.616;-3.404;2023-11-19T10:27:52;12.60;;;2.42;;
78322;SDS011;67583;50.616;-3.404;2023-11-19T10:30:27;13.32;;;2.53;;
78322;SDS011;67583;50.616;-3.404;2023-11-19T10:33:10;10.93;;;2.65;;
78322;SDS011;67583;50.616;-3.404;2023-11-19T10:38:18;8.25;;;2.33;;
78322;SDS011;67583;50.616;-3.404;2023-11-19T10:40:43;14.80;;;3.42;;
78322;SDS011;67583;50.616;-3.404;2023-11-19T10:43:09;9.30;;;2.30;;
78322;SDS011;67583;50.616;-3.404;2023-11-19T10:45:35;10.88;;;3.50;;
78322;SDS011;67583;50.616;-3.404;2023-11-19T10:48:02;8.88;;;2.58;;
78322;SDS011;67583;50.616;-3.404;2023-11-19T10:50:32;12.40;;;2.58;;
78322;SDS011;67583;50.616;-3.404;2023-11-19T10:52:59;9.35;;;2.70;;
78322;SDS011;67583;50.616;-3.404;2023-11-19T10:55:28;7.93;;;2.08;;
78322;SDS011;67583;50.616;-3.404;2023-11-19T10:57:59;11.23;;;2.85;;
78322;SDS011;67583;50.616;-3.404;2023-11-19T11:00:26;8.10;;;2.90;;
78322;SDS011;67583;50.616;-3.404;2023-11-19T11:02:56;9.80;;;2.50;;
78322;SDS011;67583;50.616;-3.404;2023-11-19T11:05:26;11.05;;;2.70;;
78322;SDS011;67583;50.616;-3.404;2023-11-19T11:07:52;11.80;;;3.10;;
78322;SDS011;67583;50.616;-3.404;2023-11-19T11:10:17;13.10;;;2.53;;
78322;SDS011;67583;50.616;-3.404;2023-11-19T11:12:43;14.95;;;3.08;;
78322;SDS011;67583;50.616;-3.404;2023-11-19T11:15:08;10.70;;;2.08;;
78322;SDS011;67583;50.616;-3.404;2023-11-19T11:17:37;12.18;;;2.10;;
78322;SDS011;67583;50.616;-3.404;2023-11-19T11:20:04;15.63;;;3.17;;
78322;SDS011;67583;50.616;-3.404;2023-11-19T11:22:31;12.18;;;3.55;;
78322;SDS011;67583;50.616;-3.404;2023-11-19T11:25:16;13.70;;;3.97;;
78322;SDS011;67583;50.616;-3.404;2023-11-19T11:31:36;10.55;;;2.08;;
78322;SDS011;67583;50.616;-3.404;2023-11-19T11:36:29;11.90;;;3.03;;
78322;SDS011;67583;50.616;-3.404;2023-11-19T11:38:57;10.45;;;2.67;;
78322;SDS011;67583;50.616;-3.404;2023-11-19T11:41:25;13.38;;;2.55;;
78322;SDS011;67583;50.616;-3.404;2023-11-19T11:49:05;14.35;;;2.45;;
78322;SDS011;67583;50.616;-3.404;2023-11-19T11:57:00;9.32;;;2.45;;
78322;SDS011;67583;50.616;-3.404;2023-11-19T11:59:36;11.82;;;2.42;;
78322;SDS011;67583;50.616;-3.404;2023-11-19T12:02:07;6.07;;;1.90;;
78322;SDS011;67583;50.616;-3.404;2023-11-19T12:04:34;6.13;;;1.77;;
78322;SDS011;67583;50.616;-3.404;2023-11-19T12:07:03;9.18;;;1.98;;
78322;SDS011;67583;50.616;-3.404;2023-11-19T12:09:31;5.80;;;2.00;;
78322;SDS011;67583;50.616;-3.404;2023-11-19T12:12:13;6.30;;;1.80;;
78322;SDS011;67583;50.616;-3.404;2023-11-19T12:20:03;9.43;;;2.50;;
78322;SDS011;67583;50.616;-3.404;2023-11-19T12:22:33;8.60;;;3.03;;
78322;SDS011;67583;50.616;-3.404;2023-11-19T12:24:58;10.07;;;2.10;;
78322;SDS011;67583;50.616;-3.404;2023-11-19T12:27:24;9.43;;;2.30;;
78322;SDS011;67583;50.616;-3.404;2023-11-19T12:29:49;6.00;;;1.70;;
78322;SDS011;67583;50.616;-3.404;2023-11-19T12:32:15;6.90;;;1.58;;
78322;SDS011;67583;50.616;-3.404;2023-11-19T12:34:40;5.30;;;1.50;;
78322;SDS011;67583;50.616;-3.404;2023-11-19T12:37:06;10.00;;;2.85;;
78322;SDS011;67583;50.616;-3.404;2023-11-19T12:39:31;14.73;;;1.80;;
78322;SDS011;67583;50.616;-3.404;2023-11-19T12:41:57;8.63;;;1.63;;
78322;SDS011;67583;50.616;-3.404;2023-11-19T12:44:24;9.13;;;2.45;;
78322;SDS011;67583;50.616;-3.404;2023-11-19T12:49:27;7.32;;;2.08;;
78322;SDS011;67583;50.616;-3.404;2023-11-19T12:51:52;6.60;;;1.85;;
78322;SDS011;67583;50.616;-3.404;2023-11-19T12:54:18;4.53;;;2.22;;
78322;SDS011;67583;50.616;-3.404;2023-11-19T12:56:53;8.77;;;2.42;;
78322;SDS011;67583;50.616;-3.404;2023-11-19T12:59:18;12.20;;;2.78;;
78322;SDS011;67583;50.616;-3.404;2023-11-19T13:01:54;7.60;;;2.63;;
78322;SDS011;67583;50.616;-3.404;2023-11-19T13:04:20;8.52;;;2.60;;
78322;SDS011;67583;50.616;-3.404;2023-11-19T13:06:46;7.78;;;2.80;;
78322;SDS011;67583;50.616;-3.404;2023-11-19T13:09:27;4.75;;;1.55;;
78322;SDS011;67583;50.616;-3.404;2023-11-19T13:11:56;6.85;;;1.77;;
78322;SDS011;67583;50.616;-3.404;2023-11-19T13:14:22;7.32;;;2.35;;
78322;SDS011;67583;50.616;-3.404;2023-11-19T13:16:48;5.07;;;2.03;;
78322;SDS011;67583;50.616;-3.404;2023-11-19T13:19:14;9.07;;;2.90;;
78322;SDS011;67583;50.616;-3.404;2023-11-19T13:21:41;6.57;;;3.25;;
78322;SDS011;67583;50.616;-3.404;2023-11-19T13:24:07;8.27;;;2.42;;
78322;SDS011;67583;50.616;-3.404;2023-11-19T13:26:32;10.90;;;3.17;;
78322;SDS011;67583;50.616;-3.404;2023-11-19T13:28:58;5.85;;;2.45;;
78322;SDS011;67583;50.616;-3.404;2023-11-19T13:31:23;14.15;;;2.63;;
78322;SDS011;67583;50.616;-3.404;2023-11-19T13:33:48;11.50;;;2.38;;
78322;SDS011;67583;50.616;-3.404;2023-11-19T13:36:14;10.75;;;2.95;;
78322;SDS011;67583;50.616;-3.404;2023-11-19T13:38:39;9.23;;;3.35;;
78322;SDS011;67583;50.616;-3.404;2023-11-19T13:41:07;12.05;;;4.65;;
78322;SDS011;67583;50.616;-3.404;2023-11-19T13:43:35;13.80;;;4.07;;
78322;SDS011;67583;50.616;-3.404;2023-11-19T13:46:00;9.82;;;2.33;;
78322;SDS011;67583;50.616;-3.404;2023-11-19T13:48:26;9.63;;;3.15;;
78322;SDS011;67583;50.616;-3.404;2023-11-19T13:50:52;8.07;;;2.10;;
78322;SDS011;67583;50.616;-3.404;2023-11-19T13:53:18;15.95;;;3.17;;
78322;SDS011;67583;50.616;-3.404;2023-11-19T13:55:43;9.32;;;2.65;;
78322;SDS011;67583;50.616;-3.404;2023-11-19T13:58:09;10.45;;;2.60;;
78322;SDS011;67583;50.616;-3.404;2023-11-19T14:00:35;9.73;;;2.78;;
78322;SDS011;67583;50.616;-3.404;2023-11-19T14:03:01;7.15;;;2.28;;
78322;SDS011;67583;50.616;-3.404;2023-11-19T14:05:27;11.85;;;2.17;;
78322;SDS011;67583;50.616;-3.404;2023-11-19T14:07:52;10.88;;;3.35;;
78322;SDS011;67583;50.616;-3.404;2023-11-19T14:10:18;14.98;;;2.90;;
78322;SDS011;67583;50.616;-3.404;2023-11-19T14:12:44;15.55;;;3.10;;
78322;SDS011;67583;50.616;-3.404;2023-11-19T14:15:10;13.90;;;3.42;;
78322;SDS011;67583;50.616;-3.404;2023-11-19T14:17:37;8.50;;;2.40;;
78322;SDS011;67583;50.616;-3.404;2023-11-19T14:20:03;9.90;;;3.63;;
78322;SDS011;67583;50.616;-3.404;2023-11-19T14:22:44;9.77;;;2.13;;
78322;SDS011;67583;50.616;-3.404;2023-11-19T14:25:12;13.27;;;2.63;;
78322;SDS011;67583;50.616;-3.404;2023-11-19T14:27:41;17.75;;;2.40;;
78322;SDS011;67583;50.616;-3.404;2023-11-19T14:30:08;7.97;;;2.47;;
78322;SDS011;67583;50.616;-3.404;2023-11-19T14:32:36;10.85;;;2.17;;
78322;SDS011;67583;50.616;-3.404;2023-11-19T14:35:02;9.77;;;2.05;;
78322;SDS011;67583;50.616;-3.404;2023-11-19T14:37:28;8.40;;;2.20;;
78322;SDS011;67583;50.616;-3.404;2023-11-19T14:39:54;7.40;;;2.20;;
78322;SDS011;67583;50.616;-3.404;2023-11-19T14:42:20;14.60;;;3.22;;
78322;SDS011;67583;50.616;-3.404;2023-11-19T14:44:45;7.65;;;2.60;;
78322;SDS011;67583;50.616;-3.404;2023-11-19T14:47:11;15.93;;;2.92;;
78322;SDS011;67583;50.616;-3.404;2023-11-19T14:49:36;15.05;;;2.78;;
78322;SDS011;67583;50.616;-3.404;2023-11-19T14:52:04;13.68;;;2.70;;